Latest Coastal Weather Observations for Gold Coast Seaway

IDQ60701

Issued at 7:21 pm EST Saturday 6 February 2016 (issued every 10 minutes, with the page automatically refreshed every 10 minutes)

About coastal observations | Map of coastal stations | Coastal observations for QLD | Marine services | Other Formats
Station Details ID: 040764 Name: GOLD COAST SEAWAY Lat: -27.94 Lon: 153.43 Height: 2.98 m
Data from the previous 72 hours. | See also: Recent months at Gold Coast Seaway
Date/Time
EST
Temp

°C
Wind Pressure Rain
since 9am
mm
Weather Cloud Vis
km
Sea
Height
m
Swell
Dir
 
Speed
knots
Gust
knots
hPa Trend Height
m
Period
s
Dir
06/07:00pm 22.8 SE 23 29 1011.7 - 2.0 - - - - - - -
06/06:30pm 23.5 SSE 23 27 1011.2 - 1.4 - - - - - - -
06/06:08pm 23.6 SE 20 30 1011.0 - 1.2 - - - - - - -
06/06:00pm 23.4 SSE 24 30 1010.8 - 1.2 - - - - - - -
06/05:30pm 25.2 SSE 21 27 1010.3 - 1.2 - - - - - - -
06/05:00pm 25.0 SSE 21 26 1010.1 - 1.2 - - - - - - -
06/04:30pm 24.4 SSE 20 26 1009.8 - 1.2 - - - - - - -
06/04:00pm 26.2 SSE 21 26 1009.8 - 1.0 - - - - - - -
06/03:30pm 26.5 SSE 23 28 1009.7 - 1.0 - - - - - - -
06/03:00pm 25.6 SSE 25 32 1009.8 - 1.0 - - - - - - -
06/02:52pm 25.6 SSE 19 30 1009.8 - 1.0 - - - - - - -
06/02:30pm 27.0 SSE 21 27 1010.1 - 1.0 - - - - - - -
06/02:00pm 26.9 SSE 21 25 1010.2 - 1.0 - - - - - - -
06/01:30pm 26.6 SSE 19 22 1010.3 - 1.0 - - - - - - -
06/01:00pm 24.4 SE 23 28 1010.5 - 0.8 - - - - - - -
06/12:30pm 27.4 SE 19 25 1010.7 - 0.6 - - - - - - -
06/12:00pm 27.7 SE 20 25 1011.0 - 0.6 Recent precip. - - - - - -
06/11:30am 26.7 SSE 20 23 1011.2 - 0.6 - - - - - - -
06/11:00am 26.6 SE 18 23 1011.3 - 0.4 - - - - - - -
06/10:30am 26.0 SE 20 27 1011.4 - 0.4 - - - - - - -
06/10:00am 26.7 SE 19 23 1011.5 - 0.4 - - - - - - -
06/09:30am 24.4 SE 19 25 1011.5 - 0.4 - - - - - - -
06/09:19am 24.4 SE 20 30 1011.5 - 0.2 - - - - - - -
06/09:00am 25.3 SE 20 26 1011.3 - 13.6 Recent precip. - - - - - -
06/08:51am 26.3 SE 19 23 1011.3 - 13.6 - - - - - - -
06/08:30am 24.6 S 16 19 1011.2 - 13.6 - - - - - - -
06/08:00am 23.9 SSE 13 16 1011.2 - 13.4 - - - - - - -
06/07:30am 22.9 SSE 18 22 1011.1 - 13.4 - - - - - - -
06/07:00am 22.3 S 13 18 1011.0 - 11.4 - - - - - - -
06/06:30am 22.1 SSE 13 18 1010.7 - 10.4 - - - - - - -
06/06:00am 21.8 S 16 25 1010.2 - 9.8 Rain - - - - - -
06/05:58am 21.8 S 15 25 1010.2 - 9.8 - - - - - - -
06/05:30am 21.6 S 15 19 1009.7 - 7.4 - - - - - - -
06/05:00am 22.4 SSE 19 22 1009.2 - 5.6 - - - - - - -
06/04:30am 22.0 SSE 18 25 1009.2 - 5.6 - - - - - - -
06/04:00am 22.0 SSE 20 26 1009.0 - 2.8 - - - - - - -
06/03:30am 21.6 S 15 19 1008.8 - 1.4 - - - - - - -
06/03:00am 21.7 S 17 25 1008.7 - 0.8 - - - - - - -
06/02:30am 22.0 SSE 20 27 1008.9 - 0.8 - - - - - - -
06/02:00am 21.9 S 19 25 1009.1 - 0.8 - - - - - - -
06/01:30am 22.1 SSE 24 29 1009.3 - 0.8 - - - - - - -
06/01:00am 22.5 S 17 21 1009.3 - 0.2 - - - - - - -
06/12:30am 22.4 S 22 30 1009.6 - 0.2 - - - - - - -
06/12:00am 23.2 SSE 22 27 1010.0 - 0.2 - - - - - - -
 
Date/Time
EST
Temp

°C
Wind Pressure Rain
since 9am
mm
Weather Cloud Vis
km
Sea
Height
m
Swell
Dir
 
Speed
knots
Gust
knots
hPa Trend Height
m
Period
s
Dir
05/11:30pm 23.4 S 20 27 1010.4 - 0.2 - - - - - - -
05/11:00pm 23.2 S 21 26 1010.6 - 0.2 - - - - - - -
05/10:30pm 23.1 S 17 26 1010.8 - 0.2 - - - - - - -
05/10:00pm 22.5 S 14 19 1011.0 - 0.2 - - - - - - -
05/09:30pm 23.3 S 19 26 1011.1 - 0.2 - - - - - - -
05/09:00pm 23.5 S 20 25 1011.0 - 0.2 - - - - - - -
05/08:30pm 23.8 SSE 21 27 1010.6 - 0.2 - - - - - - -
05/08:00pm 23.5 S 19 25 1010.4 - 0.2 - - - - - - -
05/07:30pm 23.7 S 22 28 1010.0 - 0.2 - - - - - - -
05/07:00pm 24.2 SSE 28 34 1009.6 - 0.2 - - - - - - -
05/06:30pm 24.5 SSE 25 33 1009.3 - 0.2 - - - - - - -
05/06:00pm 24.5 SSE 25 31 1009.0 - 0.2 - - - - - - -
05/05:30pm 24.1 SSE 25 30 1008.6 - 0.2 - - - - - - -
05/05:00pm 25.5 SSE 25 31 1008.3 - 0.2 - - - - - - -
05/04:30pm 26.1 SSE 24 31 1008.2 - 0.2 - - - - - - -
05/04:03pm 25.4 SSE 21 33 1008.0 - 0.2 - - - - - - -
05/04:00pm 25.6 SSE 20 27 1008.0 - 0.2 - - - - - - -
05/03:30pm 24.6 SSE 24 30 1008.1 - 0.2 - - - - - - -
05/03:00pm 25.9 SSE 26 31 1008.1 - 0.2 - - - - - - -
05/02:38pm 26.2 SSE 23 33 1008.1 - 0.2 - - - - - - -
05/02:30pm 26.2 SSE 21 28 1008.2 - 0.2 - - - - - - -
05/02:00pm 27.0 SSE 18 21 1008.4 - 0.2 - - - - - - -
05/01:37pm 26.5 SSE 19 32 1008.6 - 0.2 - - - - - - -
05/01:30pm 27.8 SSE 19 22 1008.6 - 0.2 - - - - - - -
05/01:00pm 28.7 SSE 19 24 1008.8 - 0.0 - - - - - - -
05/12:30pm 26.0 SSE 23 30 1009.2 - 0.0 - - - - - - -
05/12:13pm 26.0 SSE 15 27 1009.5 - 0.0 - - - - - - -
05/12:00pm 26.2 SSE 19 22 1009.5 - 0.0 - - - - - - -
05/11:30am 25.8 SSE 20 33 1009.5 - 0.0 - - - - - - -
05/11:00am 26.8 SSE 19 25 1009.5 - 0.0 - - - - - - -
05/10:30am 26.4 SSE 18 22 1009.3 - 0.0 - - - - - - -
05/10:00am 26.6 SSE 17 22 1009.4 - 0.0 - - - - - - -
05/09:30am 26.3 SSE 18 21 1009.3 - 0.0 - - - - - - -
05/09:00am 26.0 SSE 18 21 1009.0 - 2.2 - - - - - - -
05/08:30am 25.2 SSE 18 21 1008.8 - 2.2 - - - - - - -
05/08:00am 24.7 S 17 22 1008.7 - 2.2 - - - - - - -
05/07:30am 24.2 S 16 20 1008.6 - 2.2 - - - - - - -
05/07:00am 23.8 S 15 20 1008.2 - 2.2 - - - - - - -
05/06:30am 23.4 S 17 22 1007.8 - 2.2 - - - - - - -
05/06:00am 23.2 S 16 19 1007.4 - 2.2 - - - - - - -
05/05:30am 23.1 S 10 15 1007.0 - 2.2 - - - - - - -
05/05:00am 23.1 S 15 20 1006.6 - 2.2 - - - - - - -
05/04:30am 23.1 S 13 19 1006.4 - 2.2 - - - - - - -
05/04:00am 23.1 S 15 19 1006.3 - 2.2 - - - - - - -
05/03:30am 23.0 S 14 18 1006.2 - 2.2 - - - - - - -
05/03:00am 23.0 S 14 19 1006.2 - 2.2 - - - - - - -
05/02:30am 23.1 S 13 18 1006.2 - 2.2 - - - - - - -
05/02:00am 23.1 S 15 19 1006.4 - 2.2 - - - - - - -
05/01:30am 23.2 S 11 15 1006.6 - 2.2 - - - - - - -
05/01:00am 23.1 S 11 15 1007.0 - 2.2 - - - - - - -
05/12:30am 23.1 S 8 12 1007.5 - 2.2 - - - - - - -
05/12:00am 22.9 S 11 17 1007.8 - 2.2 - - - - - - -
 
Date/Time
EST
Temp

°C
Wind Pressure Rain
since 9am
mm
Weather Cloud Vis
km
Sea
Height
m
Swell
Dir
 
Speed
knots
Gust
knots
hPa Trend Height
m
Period
s
Dir
04/11:30pm 22.7 S 8 10 1008.3 - 2.2 - - - - - - -
04/11:00pm 22.5 SSW 6 10 1008.3 - 2.2 - - - - - - -
04/10:30pm 22.6 SW 5 6 1008.6 - 2.2 - - - - - - -
04/10:00pm 22.7 SW 3 5 1008.9 - 2.2 - - - - - - -
04/09:30pm 22.4 S 5 6 1009.1 - 2.0 - - - - - - -
04/09:00pm 22.3 S 7 8 1009.0 - 2.0 Recent precip. - - - - - -
04/08:30pm 22.4 S 7 9 1008.7 - 1.8 - - - - - - -
04/08:00pm 22.9 S 7 10 1008.6 - 1.4 - - - - - - -
04/07:30pm 23.4 S 10 14 1008.3 - 1.2 - - - - - - -
04/07:00pm 23.7 S 11 16 1008.0 - 1.2 - - - - - - -
04/06:30pm 23.7 SSE 14 16 1007.5 - 1.2 - - - - - - -
04/06:00pm 23.7 SSE 11 13 1007.0 - 1.2 - - - - - - -
04/05:30pm 24.0 SSE 13 17 1006.5 - 1.2 - - - - - - -
04/05:00pm 23.9 SSE 13 17 1006.3 - 1.2 - - - - - - -
04/04:30pm 24.1 SSE 18 22 1006.0 - 1.2 - - - - - - -
04/04:00pm 24.0 SSE 19 22 1005.8 - 1.2 - - - - - - -
04/03:30pm 24.5 SSE 21 25 1005.6 - 1.2 - - - - - - -
04/03:00pm 25.2 SSE 23 29 1005.8 - 1.2 - - - - - - -
04/02:30pm 25.2 SSE 21 25 1005.9 - 1.2 - - - - - - -
04/02:00pm 25.2 SSE 21 26 1006.0 - 1.2 - - - - - - -
04/01:30pm 25.8 SE 18 21 1006.1 - 1.2 - - - - - - -
04/01:00pm 25.8 SSE 16 18 1006.4 - 1.2 - - - - - - -
04/12:30pm 25.2 SSE 15 18 1006.6 - 1.2 - - - - - - -
04/12:00pm 24.9 SSE 12 18 1006.6 - 1.2 Recent precip. - - - - - -
04/11:30am 24.8 SSE 13 16 1006.7 - 1.2 - - - - - - -
04/11:00am 24.3 S 13 17 1006.6 - 1.0 - - - - - - -
04/10:30am 24.3 SSE 15 20 1006.6 - 0.4 - - - - - - -
04/10:00am 24.3 SSE 13 15 1006.3 - 0.4 - - - - - - -
04/09:30am 24.6 SSE 14 17 1006.1 - 0.0 - - - - - - -
04/09:00am 24.9 SSE 16 19 1005.8 - 15.4 - - - - - - -
04/08:30am 24.9 SSE 13 16 1005.4 - 15.4 - - - - - - -
04/08:00am 24.4 SSE 6 7 1005.3 - 15.4 - - - - - - -
04/07:30am 23.5 SSW 5 7 1005.2 - 15.4 - - - - - - -
04/07:00am 23.3 SW 6 7 1005.0 - 13.2 - - - - - - -
04/06:30am 23.2 SW 5 6 1004.6 - 12.6 - - - - - - -
04/06:00am 23.4 SW 7 9 1004.2 - 9.4 Rain - - - - - -
04/05:30am 23.5 SSW 6 8 1003.7 - 8.4 - - - - - - -
04/05:00am 23.3 SSW 7 10 1003.4 - 8.4 - - - - - - -
04/04:30am 23.1 SSW 7 9 1003.1 - 7.6 - - - - - - -
04/04:00am 23.1 W 6 8 1002.7 - 3.2 - - - - - - -
04/03:30am 23.3 WSW 5 7 1002.5 - 1.6 - - - - - - -
04/03:00am 24.3 S 6 7 1002.4 - 0.8 Rain - - - - - -
04/02:30am 24.6 S 5 8 1002.3 - 0.4 - - - - - - -
04/02:00am 24.7 S 8 10 1002.5 - 0.2 - - - - - - -
04/01:30am 24.7 S 7 8 1002.8 - 0.2 - - - - - - -
04/01:00am 24.7 NNW 5 5 1002.9 - 0.2 - - - - - - -
04/12:30am 24.7 NNW 2 4 1003.1 - 0.2 - - - - - - -
04/12:00am 24.5 NNW 4 4 1003.6 - 0.2 - - - - - - -
 
Date/Time
EST
Temp

°C
Wind Pressure Rain
since 9am
mm
Weather Cloud Vis
km
Sea
Height
m
Swell
Dir
 
Speed
knots
Gust
knots
hPa Trend Height
m
Period
s
Dir
03/11:30pm 24.5 NNW 4 4 1003.9 - 0.2 - - - - - - -
03/11:00pm 24.4 NNW 3 4 1003.8 - 0.2 - - - - - - -
03/10:30pm 24.5 NNW 2 4 1004.1 - 0.2 - - - - - - -
03/10:00pm 25.1 CALM 0 0 1004.5 - 0.2 - - - - - - -
03/09:30pm 24.9 N 4 5 1004.2 - 0.2 - - - - - - -
03/09:00pm 25.2 N 6 7 1004.0 - 0.2 - - - - - - -
03/08:30pm 24.9 NE 5 6 1003.6 - 0.2 - - - - - - -
03/08:00pm 25.2 N 4 4 1003.7 - 0.2 - - - - - - -
03/07:30pm 26.0 NNW 5 6 1003.4 - 0.2 - - - - - - -

Other Formats:

Comma delimited format used in spreadsheet applications
http://www.bom.gov.au/fwo/IDQ60701/IDQ60701.94580.axf

JavaScript Object Notation format (JSON) in row-major order
http://www.bom.gov.au/fwo/IDQ60701/IDQ60701.94580.json